SBUA/SJL METAR and TAF weather

Enter ICAO airport designator
Station Type Date Time Source
SBUA METAR 2022/06/29 21:00 UTC NOAA

SBUA 292100Z 20004KT 150V240 9999 FEW030 SCT080 29/24 Q1010


Station Type Date Time Source
SBUA Decoded METAR 2022/06/29 21:00 UTC NOAA

Sao Gabriel Da Cachoeira, Brazil (SBUA) 00-08S 067-05W
Jun 29, 2022 - 05:00 PM EDT / 2022.06.29 2100 UTC
Wind: from the SSW (200 degrees) at 5 MPH (4 KT) (direction variable):0
Visibility: greater than 7 mile(s):0
Sky conditions: partly cloudy
Temperature: 84 F (29 C)
Dew Point: 75 F (24 C)
Relative Humidity: 74%
Pressure (altimeter): 29.83 in. Hg (1010 hPa)
ob: SBUA 292100Z 20004KT 150V240 9999 FEW030 SCT080 29/24 Q1010
cycle: 21

Station Type Date Time Source
SBUA TAF 2015/12/16 12:56 UTC NOAA

SBUA 161000Z 1612/1624 00000KT 8000 BKN008 FEW025TCU TN25/1612Z TX34/ 1618Z
BECMG 1613/1615 32005KT 9999 BKN015
BECMG 1617/1619 06005KT SCT017 FEW025TCU PROB40 1619/1622 4000 TSRA BKN015 FEW025CB
RMK PDZ

Example: see airport list